Lourdes, Iowa
Current Conditions -  °F | °C
As of 8:55 PM on Wednesday 22 Oct 2014 (Local Time) from KCCY Reporting Station
Overcast Overcast  
Wind Chill: 55°   Ceiling: 5000
Heat Index: 55°   Visibility: 10mi
Dew Point: 39°   Wind: 15mph
Humidity: 54%   Direction: 150°SSE
Pressure: 30.13"   Gusts: NA
Location:  43.2962°N, 92.3767°W
Report Text: KCCY 230155Z AUTO 15013KT 10SM BKN050 BKN070 OVC100 13/04 A3013 RMK AO2
Loading
Personal Weather Stations






























Interactive Weather Map
Tropical Storm Tracking
New forecast layout! Learn more

10-Day Weather Forecast

Advertisements
Track Severe Weather on mobile